Terminal Aerodrome Forecast
Issued by NWS

Home | Current Version | Previous Version | Text Only | Print | Product List | Glossary On
Versions: 1 2 3 4 5 6 7 8 9 10 11 12 13 14
000
FTAK31 PAJN 291727
TAFAPG
TAF
PAPG 291727Z 2918/3018 05005KT P6SM FEW005 SCT015
     FM292100 05009KT P6SM SKC
     FM300800 05009KT P6SM VCFG SKC
      AMD LTD TO CLD VIS AND WIND 3006/3015=

USA.gov is the U.S. government's official web portal to all federal, state and local government web resources and services.